sensor_id;sensor_type;location;lat;lon;timestamp;pressure;altitude;pressure_sealevel;temperature;humidity
57412;BME280;43247;52.828;-8.980;2023-03-21T00:00:29;100084.78;;;10.79;92.05
57412;BME280;43247;52.828;-8.980;2023-03-21T00:01:30;100084.09;;;10.79;92.01
57412;BME280;43247;52.828;-8.980;2023-03-21T00:02:30;100083.21;;;10.80;92.01
57412;BME280;43247;52.828;-8.980;2023-03-21T00:03:32;100083.50;;;10.79;92.10
57412;BME280;43247;52.828;-8.980;2023-03-21T00:04:30;100080.49;;;10.79;92.00
57412;BME280;43247;52.828;-8.980;2023-03-21T00:05:31;100078.17;;;10.78;92.19
57412;BME280;43247;52.828;-8.980;2023-03-21T00:06:31;100075.36;;;10.78;92.25
57412;BME280;43247;52.828;-8.980;2023-03-21T00:07:31;100074.27;;;10.77;92.26
57412;BME280;43247;52.828;-8.980;2023-03-21T00:08:31;100072.85;;;10.77;92.25
57412;BME280;43247;52.828;-8.980;2023-03-21T00:09:31;100071.22;;;10.76;92.25
57412;BME280;43247;52.828;-8.980;2023-03-21T00:10:31;100070.13;;;10.76;92.30
57412;BME280;43247;52.828;-8.980;2023-03-21T00:11:32;100071.25;;;10.76;92.28
57412;BME280;43247;52.828;-8.980;2023-03-21T00:12:32;100071.10;;;10.76;92.35
57412;BME280;43247;52.828;-8.980;2023-03-21T00:13:33;100070.85;;;10.75;92.24
57412;BME280;43247;52.828;-8.980;2023-03-21T00:14:32;100066.60;;;10.75;92.18
57412;BME280;43247;52.828;-8.980;2023-03-21T00:15:33;100069.11;;;10.76;92.29
57412;BME280;43247;52.828;-8.980;2023-03-21T00:16:33;100066.69;;;10.75;92.25
57412;BME280;43247;52.828;-8.980;2023-03-21T00:17:33;100064.38;;;10.75;92.27
57412;BME280;43247;52.828;-8.980;2023-03-21T00:18:33;100064.13;;;10.75;92.31
57412;BME280;43247;52.828;-8.980;2023-03-21T00:19:33;100062.61;;;10.75;92.29
57412;BME280;43247;52.828;-8.980;2023-03-21T00:20:33;100059.09;;;10.75;92.32
57412;BME280;43247;52.828;-8.980;2023-03-21T00:21:34;100058.36;;;10.75;92.32
57412;BME280;43247;52.828;-8.980;2023-03-21T00:22:35;100057.66;;;10.75;92.24
57412;BME280;43247;52.828;-8.980;2023-03-21T00:23:34;100056.63;;;10.75;92.24
57412;BME280;43247;52.828;-8.980;2023-03-21T00:24:35;100059.79;;;10.74;92.33
57412;BME280;43247;52.828;-8.980;2023-03-21T00:25:34;100058.81;;;10.74;92.27
57412;BME280;43247;52.828;-8.980;2023-03-21T00:26:34;100059.18;;;10.73;92.35
57412;BME280;43247;52.828;-8.980;2023-03-21T00:27:34;100057.55;;;10.73;92.35
57412;BME280;43247;52.828;-8.980;2023-03-21T00:28:35;100055.96;;;10.73;92.32
57412;BME280;43247;52.828;-8.980;2023-03-21T00:29:35;100050.13;;;10.74;92.36
57412;BME280;43247;52.828;-8.980;2023-03-21T00:30:35;100046.33;;;10.74;92.31
57412;BME280;43247;52.828;-8.980;2023-03-21T00:31:35;100044.77;;;10.73;92.22
57412;BME280;43247;52.828;-8.980;2023-03-21T00:32:35;100045.15;;;10.74;92.21
57412;BME280;43247;52.828;-8.980;2023-03-21T00:33:36;100043.60;;;10.73;92.14
57412;BME280;43247;52.828;-8.980;2023-03-21T00:34:36;100043.13;;;10.72;92.15
57412;BME280;43247;52.828;-8.980;2023-03-21T00:35:37;100040.31;;;10.73;92.25
57412;BME280;43247;52.828;-8.980;2023-03-21T00:36:37;100040.09;;;10.73;92.29
57412;BME280;43247;52.828;-8.980;2023-03-21T00:37:37;100038.86;;;10.72;92.08
57412;BME280;43247;52.828;-8.980;2023-03-21T00:38:37;100039.05;;;10.71;92.10
57412;BME280;43247;52.828;-8.980;2023-03-21T00:39:37;100036.67;;;10.71;92.12
57412;BME280;43247;52.828;-8.980;2023-03-21T00:40:38;100035.89;;;10.70;92.08
57412;BME280;43247;52.828;-8.980;2023-03-21T00:41:37;100036.48;;;10.70;92.10
57412;BME280;43247;52.828;-8.980;2023-03-21T00:42:37;100038.47;;;10.69;92.02
57412;BME280;43247;52.828;-8.980;2023-03-21T00:43:38;100036.98;;;10.69;92.00
57412;BME280;43247;52.828;-8.980;2023-03-21T00:44:38;100037.98;;;10.68;91.97
57412;BME280;43247;52.828;-8.980;2023-03-21T00:45:38;100038.12;;;10.68;91.95
57412;BME280;43247;52.828;-8.980;2023-03-21T00:46:38;100036.76;;;10.67;91.92
57412;BME280;43247;52.828;-8.980;2023-03-21T00:47:38;100038.42;;;10.67;91.98
57412;BME280;43247;52.828;-8.980;2023-03-21T00:48:39;100037.81;;;10.68;92.03
57412;BME280;43247;52.828;-8.980;2023-03-21T00:49:39;100035.15;;;10.67;92.02
57412;BME280;43247;52.828;-8.980;2023-03-21T00:50:39;100034.08;;;10.68;92.04
57412;BME280;43247;52.828;-8.980;2023-03-21T00:51:40;100030.77;;;10.67;92.09
57412;BME280;43247;52.828;-8.980;2023-03-21T00:52:40;100030.53;;;10.67;92.05
57412;BME280;43247;52.828;-8.980;2023-03-21T00:53:40;100026.40;;;10.68;92.13
57412;BME280;43247;52.828;-8.980;2023-03-21T00:54:40;100021.26;;;10.68;92.10
57412;BME280;43247;52.828;-8.980;2023-03-21T00:55:40;100021.53;;;10.69;92.21
57412;BME280;43247;52.828;-8.980;2023-03-21T00:56:40;100020.39;;;10.68;92.22
57412;BME280;43247;52.828;-8.980;2023-03-21T00:57:41;100017.36;;;10.68;92.22
57412;BME280;43247;52.828;-8.980;2023-03-21T00:58:41;100016.85;;;10.68;92.27
57412;BME280;43247;52.828;-8.980;2023-03-21T00:59:41;100016.36;;;10.69;92.27
57412;BME280;43247;52.828;-8.980;2023-03-21T01:00:41;100012.46;;;10.69;92.38
57412;BME280;43247;52.828;-8.980;2023-03-21T01:01:41;100013.80;;;10.68;92.28
57412;BME280;43247;52.828;-8.980;2023-03-21T01:02:43;100010.85;;;10.67;92.28
57412;BME280;43247;52.828;-8.980;2023-03-21T01:03:42;100009.91;;;10.67;92.34
57412;BME280;43247;52.828;-8.980;2023-03-21T01:04:42;100008.45;;;10.68;92.34
57412;BME280;43247;52.828;-8.980;2023-03-21T01:05:44;100007.79;;;10.67;92.38
57412;BME280;43247;52.828;-8.980;2023-03-21T01:06:43;100008.04;;;10.67;92.40
57412;BME280;43247;52.828;-8.980;2023-03-21T01:07:42;100007.18;;;10.67;92.42
57412;BME280;43247;52.828;-8.980;2023-03-21T01:08:42;100008.43;;;10.66;92.40
57412;BME280;43247;52.828;-8.980;2023-03-21T01:09:43;100008.59;;;10.66;92.31
57412;BME280;43247;52.828;-8.980;2023-03-21T01:10:45;100008.56;;;10.66;92.44
57412;BME280;43247;52.828;-8.980;2023-03-21T01:11:44;100006.92;;;10.66;92.44
57412;BME280;43247;52.828;-8.980;2023-03-21T01:12:43;100003.34;;;10.66;92.48
57412;BME280;43247;52.828;-8.980;2023-03-21T01:13:44;100000.16;;;10.65;92.45
57412;BME280;43247;52.828;-8.980;2023-03-21T01:14:44;99999.20;;;10.65;92.45
57412;BME280;43247;52.828;-8.980;2023-03-21T01:15:46;99994.86;;;10.65;92.39
57412;BME280;43247;52.828;-8.980;2023-03-21T01:16:44;99991.25;;;10.66;92.40
57412;BME280;43247;52.828;-8.980;2023-03-21T01:17:45;99992.24;;;10.66;92.46
57412;BME280;43247;52.828;-8.980;2023-03-21T01:18:45;99991.40;;;10.66;92.51
57412;BME280;43247;52.828;-8.980;2023-03-21T01:19:45;99991.41;;;10.65;92.49
57412;BME280;43247;52.828;-8.980;2023-03-21T01:20:46;99989.09;;;10.65;92.42
57412;BME280;43247;52.828;-8.980;2023-03-21T01:21:45;99986.73;;;10.65;92.37
57412;BME280;43247;52.828;-8.980;2023-03-21T01:22:45;99985.11;;;10.64;92.45
57412;BME280;43247;52.828;-8.980;2023-03-21T01:23:46;99983.54;;;10.64;92.44
57412;BME280;43247;52.828;-8.980;2023-03-21T01:24:46;99981.73;;;10.64;92.42
57412;BME280;43247;52.828;-8.980;2023-03-21T01:25:47;99981.02;;;10.64;92.40
57412;BME280;43247;52.828;-8.980;2023-03-21T01:26:46;99981.00;;;10.63;92.38
57412;BME280;43247;52.828;-8.980;2023-03-21T01:27:46;99980.04;;;10.62;92.30
57412;BME280;43247;52.828;-8.980;2023-03-21T01:28:46;99977.68;;;10.61;92.27
57412;BME280;43247;52.828;-8.980;2023-03-21T01:29:47;99981.52;;;10.61;92.19
57412;BME280;43247;52.828;-8.980;2023-03-21T01:30:48;99980.35;;;10.61;92.09
57412;BME280;43247;52.828;-8.980;2023-03-21T01:31:47;99977.42;;;10.61;92.19
57412;BME280;43247;52.828;-8.980;2023-03-21T01:32:47;99975.54;;;10.60;92.19
57412;BME280;43247;52.828;-8.980;2023-03-21T01:33:47;99973.08;;;10.60;92.07
57412;BME280;43247;52.828;-8.980;2023-03-21T01:34:48;99974.87;;;10.59;92.06
57412;BME280;43247;52.828;-8.980;2023-03-21T01:35:48;99973.92;;;10.59;92.01
57412;BME280;43247;52.828;-8.980;2023-03-21T01:36:48;99977.00;;;10.59;92.04
57412;BME280;43247;52.828;-8.980;2023-03-21T01:37:49;99975.87;;;10.58;91.99
57412;BME280;43247;52.828;-8.980;2023-03-21T01:38:50;99978.03;;;10.58;92.08
57412;BME280;43247;52.828;-8.980;2023-03-21T01:39:49;99977.58;;;10.58;92.09
57412;BME280;43247;52.828;-8.980;2023-03-21T01:40:50;99977.88;;;10.57;92.03
57412;BME280;43247;52.828;-8.980;2023-03-21T01:41:49;99976.81;;;10.57;91.99
57412;BME280;43247;52.828;-8.980;2023-03-21T01:42:50;99977.61;;;10.56;92.02
57412;BME280;43247;52.828;-8.980;2023-03-21T01:43:49;99974.07;;;10.57;92.06
57412;BME280;43247;52.828;-8.980;2023-03-21T01:44:53;99974.21;;;10.56;92.07
57412;BME280;43247;52.828;-8.980;2023-03-21T01:46:51;99970.11;;;10.56;92.07
57412;BME280;43247;52.828;-8.980;2023-03-21T01:47:50;99967.18;;;10.56;92.15
57412;BME280;43247;52.828;-8.980;2023-03-21T01:48:54;99966.10;;;10.56;92.19
57412;BME280;43247;52.828;-8.980;2023-03-21T01:49:55;99964.52;;;10.56;92.16
57412;BME280;43247;52.828;-8.980;2023-03-21T01:50:51;99963.86;;;10.56;92.16
57412;BME280;43247;52.828;-8.980;2023-03-21T01:51:55;99959.00;;;10.55;92.15
57412;BME280;43247;52.828;-8.980;2023-03-21T01:52:53;99955.65;;;10.55;92.13
57412;BME280;43247;52.828;-8.980;2023-03-21T01:53:54;99956.38;;;10.55;92.11
57412;BME280;43247;52.828;-8.980;2023-03-21T01:54:54;99954.59;;;10.55;92.07
57412;BME280;43247;52.828;-8.980;2023-03-21T01:55:54;99953.77;;;10.55;92.08
57412;BME280;43247;52.828;-8.980;2023-03-21T01:56:55;99953.61;;;10.55;92.10
57412;BME280;43247;52.828;-8.980;2023-03-21T01:57:55;99955.03;;;10.54;92.05
57412;BME280;43247;52.828;-8.980;2023-03-21T01:59:00;99957.37;;;10.54;92.08
57412;BME280;43247;52.828;-8.980;2023-03-21T01:59:54;99959.51;;;10.54;92.07
57412;BME280;43247;52.828;-8.980;2023-03-21T02:00:55;99960.12;;;10.54;92.08
57412;BME280;43247;52.828;-8.980;2023-03-21T02:01:56;99961.06;;;10.53;91.98
57412;BME280;43247;52.828;-8.980;2023-03-21T02:02:55;99960.96;;;10.53;92.14
57412;BME280;43247;52.828;-8.980;2023-03-21T02:03:56;99960.17;;;10.51;92.21
57412;BME280;43247;52.828;-8.980;2023-03-21T02:04:56;99960.60;;;10.50;92.21
57412;BME280;43247;52.828;-8.980;2023-03-21T02:05:59;99960.58;;;10.48;92.29
57412;BME280;43247;52.828;-8.980;2023-03-21T02:06:58;99959.65;;;10.47;92.29
57412;BME280;43247;52.828;-8.980;2023-03-21T02:07:57;99959.54;;;10.46;92.38
57412;BME280;43247;52.828;-8.980;2023-03-21T02:09:01;99958.79;;;10.45;92.45
57412;BME280;43247;52.828;-8.980;2023-03-21T02:09:57;99958.80;;;10.44;92.47
57412;BME280;43247;52.828;-8.980;2023-03-21T02:10:57;99956.98;;;10.44;92.46
57412;BME280;43247;52.828;-8.980;2023-03-21T02:11:57;99959.26;;;10.43;92.52
57412;BME280;43247;52.828;-8.980;2023-03-21T02:12:59;99960.32;;;10.42;92.46
57412;BME280;43247;52.828;-8.980;2023-03-21T02:13:58;99958.69;;;10.41;92.46
57412;BME280;43247;52.828;-8.980;2023-03-21T02:14:58;99957.79;;;10.40;92.42
57412;BME280;43247;52.828;-8.980;2023-03-21T02:16:01;99956.21;;;10.39;92.42
57412;BME280;43247;52.828;-8.980;2023-03-21T02:17:06;99956.83;;;10.39;92.53
57412;BME280;43247;52.828;-8.980;2023-03-21T02:18:04;99956.01;;;10.38;92.54
57412;BME280;43247;52.828;-8.980;2023-03-21T02:19:04;99957.48;;;10.37;92.45
57412;BME280;43247;52.828;-8.980;2023-03-21T02:22:10;99957.79;;;10.34;92.27
57412;BME280;43247;52.828;-8.980;2023-03-21T02:24:10;99954.99;;;10.33;92.24
57412;BME280;43247;52.828;-8.980;2023-03-21T02:26:10;99956.36;;;10.31;92.29
57412;BME280;43247;52.828;-8.980;2023-03-21T02:27:09;99958.87;;;10.31;92.43
57412;BME280;43247;52.828;-8.980;2023-03-21T02:28:05;99959.75;;;10.31;92.35
57412;BME280;43247;52.828;-8.980;2023-03-21T02:29:07;99958.86;;;10.31;92.37
57412;BME280;43247;52.828;-8.980;2023-03-21T02:31:17;99956.76;;;10.30;92.34
57412;BME280;43247;52.828;-8.980;2023-03-21T02:32:10;99956.38;;;10.30;92.38
57412;BME280;43247;52.828;-8.980;2023-03-21T02:35:24;99953.27;;;10.30;92.43
57412;BME280;43247;52.828;-8.980;2023-03-21T02:36:16;99954.58;;;10.30;92.34
57412;BME280;43247;52.828;-8.980;2023-03-21T02:37:15;99952.46;;;10.29;92.41
57412;BME280;43247;52.828;-8.980;2023-03-21T02:38:08;99952.83;;;10.29;92.40
57412;BME280;43247;52.828;-8.980;2023-03-21T02:39:11;99954.16;;;10.30;92.45
57412;BME280;43247;52.828;-8.980;2023-03-21T02:40:11;99955.80;;;10.29;92.46
57412;BME280;43247;52.828;-8.980;2023-03-21T02:41:14;99952.06;;;10.28;92.54
57412;BME280;43247;52.828;-8.980;2023-03-21T02:42:14;99949.39;;;10.24;92.05
57412;BME280;43247;52.828;-8.980;2023-03-21T02:43:12;99951.83;;;10.21;91.90
57412;BME280;43247;52.828;-8.980;2023-03-21T02:44:13;99948.23;;;10.20;91.70
57412;BME280;43247;52.828;-8.980;2023-03-21T02:45:12;99945.78;;;10.21;91.52
57412;BME280;43247;52.828;-8.980;2023-03-21T02:46:11;99945.68;;;10.21;91.42
57412;BME280;43247;52.828;-8.980;2023-03-21T02:47:11;99944.58;;;10.22;91.27
57412;BME280;43247;52.828;-8.980;2023-03-21T02:48:11;99945.77;;;10.22;91.18
57412;BME280;43247;52.828;-8.980;2023-03-21T02:49:13;99942.99;;;10.24;91.11
57412;BME280;43247;52.828;-8.980;2023-03-21T02:50:12;99940.89;;;10.25;91.04
57412;BME280;43247;52.828;-8.980;2023-03-21T02:51:12;99939.53;;;10.25;90.92
57412;BME280;43247;52.828;-8.980;2023-03-21T02:52:12;99937.73;;;10.26;90.90
57412;BME280;43247;52.828;-8.980;2023-03-21T02:53:11;99937.13;;;10.26;90.90
57412;BME280;43247;52.828;-8.980;2023-03-21T02:54:12;99936.26;;;10.26;90.84
57412;BME280;43247;52.828;-8.980;2023-03-21T02:55:12;99935.88;;;10.26;90.88
57412;BME280;43247;52.828;-8.980;2023-03-21T02:56:10;99939.06;;;10.27;90.85
57412;BME280;43247;52.828;-8.980;2023-03-21T02:57:10;99938.93;;;10.28;90.96
57412;BME280;43247;52.828;-8.980;2023-03-21T02:58:13;99935.46;;;10.29;90.81
57412;BME280;43247;52.828;-8.980;2023-03-21T02:59:10;99931.40;;;10.29;90.79
57412;BME280;43247;52.828;-8.980;2023-03-21T03:00:16;99928.30;;;10.29;90.92
57412;BME280;43247;52.828;-8.980;2023-03-21T03:01:11;99930.42;;;10.29;90.77
57412;BME280;43247;52.828;-8.980;2023-03-21T03:02:12;99932.28;;;10.29;90.76
57412;BME280;43247;52.828;-8.980;2023-03-21T03:03:12;99932.81;;;10.29;91.02
57412;BME280;43247;52.828;-8.980;2023-03-21T03:04:17;99928.98;;;10.30;91.12
57412;BME280;43247;52.828;-8.980;2023-03-21T03:05:15;99928.80;;;10.31;91.16
57412;BME280;43247;52.828;-8.980;2023-03-21T03:06:17;99926.36;;;10.31;91.30
57412;BME280;43247;52.828;-8.980;2023-03-21T03:07:22;99928.16;;;10.31;91.49
57412;BME280;43247;52.828;-8.980;2023-03-21T03:08:24;99930.46;;;10.30;91.37
57412;BME280;43247;52.828;-8.980;2023-03-21T03:09:22;99933.01;;;10.30;91.54
57412;BME280;43247;52.828;-8.980;2023-03-21T03:10:25;99936.65;;;10.30;91.65
57412;BME280;43247;52.828;-8.980;2023-03-21T03:11:23;99938.33;;;10.30;91.53
57412;BME280;43247;52.828;-8.980;2023-03-21T03:12:21;99941.82;;;10.31;91.63
57412;BME280;43247;52.828;-8.980;2023-03-21T03:13:23;99946.51;;;10.31;91.57
57412;BME280;43247;52.828;-8.980;2023-03-21T03:14:28;99948.04;;;10.30;91.56
57412;BME280;43247;52.828;-8.980;2023-03-21T03:15:24;99946.82;;;10.31;91.63
57412;BME280;43247;52.828;-8.980;2023-03-21T03:16:22;99949.34;;;10.30;91.61
57412;BME280;43247;52.828;-8.980;2023-03-21T03:17:21;99948.94;;;10.30;91.63
57412;BME280;43247;52.828;-8.980;2023-03-21T03:18:19;99949.33;;;10.29;91.60
57412;BME280;43247;52.828;-8.980;2023-03-21T03:19:23;99951.39;;;10.29;91.57
57412;BME280;43247;52.828;-8.980;2023-03-21T03:20:23;99949.64;;;10.28;91.63
57412;BME280;43247;52.828;-8.980;2023-03-21T03:21:20;99953.99;;;10.28;91.71
57412;BME280;43247;52.828;-8.980;2023-03-21T03:22:19;99955.57;;;10.28;91.81
57412;BME280;43247;52.828;-8.980;2023-03-21T03:23:24;99958.76;;;10.28;91.87
57412;BME280;43247;52.828;-8.980;2023-03-21T03:24:21;99961.97;;;10.29;91.98
57412;BME280;43247;52.828;-8.980;2023-03-21T03:25:20;99964.67;;;10.29;92.13
57412;BME280;43247;52.828;-8.980;2023-03-21T03:26:18;99966.33;;;10.29;92.13
57412;BME280;43247;52.828;-8.980;2023-03-21T03:27:20;99965.14;;;10.29;92.17
57412;BME280;43247;52.828;-8.980;2023-03-21T03:28:21;99964.40;;;10.29;92.31
57412;BME280;43247;52.828;-8.980;2023-03-21T03:29:18;99964.02;;;10.30;92.37
57412;BME280;43247;52.828;-8.980;2023-03-21T03:30:18;99962.21;;;10.30;92.33
57412;BME280;43247;52.828;-8.980;2023-03-21T03:31:22;99961.46;;;10.31;92.38
57412;BME280;43247;52.828;-8.980;2023-03-21T03:32:23;99962.97;;;10.31;92.39
57412;BME280;43247;52.828;-8.980;2023-03-21T03:33:19;99962.86;;;10.30;92.36
57412;BME280;43247;52.828;-8.980;2023-03-21T03:34:21;99958.62;;;10.30;92.41
57412;BME280;43247;52.828;-8.980;2023-03-21T03:35:19;99961.27;;;10.31;92.46
57412;BME280;43247;52.828;-8.980;2023-03-21T03:36:20;99963.01;;;10.31;92.45
57412;BME280;43247;52.828;-8.980;2023-03-21T03:37:21;99966.05;;;10.31;92.47
57412;BME280;43247;52.828;-8.980;2023-03-21T03:38:20;99965.75;;;10.31;92.61
57412;BME280;43247;52.828;-8.980;2023-03-21T03:39:19;99964.89;;;10.31;92.61
57412;BME280;43247;52.828;-8.980;2023-03-21T03:40:24;99965.14;;;10.31;92.60
57412;BME280;43247;52.828;-8.980;2023-03-21T03:41:23;99968.58;;;10.31;92.56
57412;BME280;43247;52.828;-8.980;2023-03-21T03:42:23;99968.15;;;10.31;92.60
57412;BME280;43247;52.828;-8.980;2023-03-21T03:43:23;99968.66;;;10.31;92.71
57412;BME280;43247;52.828;-8.980;2023-03-21T03:44:20;99973.69;;;10.32;92.84
57412;BME280;43247;52.828;-8.980;2023-03-21T03:45:26;99976.16;;;10.32;92.84
57412;BME280;43247;52.828;-8.980;2023-03-21T03:46:26;99978.74;;;10.33;92.92
57412;BME280;43247;52.828;-8.980;2023-03-21T03:47:25;99980.67;;;10.33;92.93
57412;BME280;43247;52.828;-8.980;2023-03-21T03:48:24;99980.39;;;10.33;92.96
57412;BME280;43247;52.828;-8.980;2023-03-21T03:49:23;99982.91;;;10.34;92.94
57412;BME280;43247;52.828;-8.980;2023-03-21T03:50:26;99985.55;;;10.34;92.96
57412;BME280;43247;52.828;-8.980;2023-03-21T03:51:25;99987.90;;;10.37;92.92
57412;BME280;43247;52.828;-8.980;2023-03-21T03:52:26;99990.34;;;10.37;93.09
57412;BME280;43247;52.828;-8.980;2023-03-21T03:53:25;99989.76;;;10.36;93.09
57412;BME280;43247;52.828;-8.980;2023-03-21T03:54:27;99991.99;;;10.37;93.12
57412;BME280;43247;52.828;-8.980;2023-03-21T03:55:24;99998.56;;;10.37;93.16
57412;BME280;43247;52.828;-8.980;2023-03-21T03:56:24;100002.05;;;10.38;93.25
57412;BME280;43247;52.828;-8.980;2023-03-21T03:57:24;100002.91;;;10.37;92.94
57412;BME280;43247;52.828;-8.980;2023-03-21T03:58:24;100004.25;;;10.42;92.49
57412;BME280;43247;52.828;-8.980;2023-03-21T03:59:24;100006.72;;;10.42;92.72
57412;BME280;43247;52.828;-8.980;2023-03-21T04:00:24;100005.17;;;10.46;92.37
57412;BME280;43247;52.828;-8.980;2023-03-21T04:01:25;100006.97;;;10.47;92.15
57412;BME280;43247;52.828;-8.980;2023-03-21T04:02:25;100010.52;;;10.47;92.28
57412;BME280;43247;52.828;-8.980;2023-03-21T04:03:25;100007.90;;;10.49;92.11
57412;BME280;43247;52.828;-8.980;2023-03-21T04:04:25;100014.47;;;10.50;92.09
57412;BME280;43247;52.828;-8.980;2023-03-21T04:05:25;100017.82;;;10.48;92.00
57412;BME280;43247;52.828;-8.980;2023-03-21T04:06:26;100018.10;;;10.53;91.74
57412;BME280;43247;52.828;-8.980;2023-03-21T04:07:26;100018.15;;;10.54;92.11
57412;BME280;43247;52.828;-8.980;2023-03-21T04:08:26;100022.09;;;10.55;91.94
57412;BME280;43247;52.828;-8.980;2023-03-21T04:09:26;100025.69;;;10.55;91.64
57412;BME280;43247;52.828;-8.980;2023-03-21T04:10:26;100030.60;;;10.54;91.89
57412;BME280;43247;52.828;-8.980;2023-03-21T04:11:26;100033.66;;;10.55;91.91
57412;BME280;43247;52.828;-8.980;2023-03-21T04:12:26;100032.78;;;10.59;91.84
57412;BME280;43247;52.828;-8.980;2023-03-21T04:13:27;100030.76;;;10.61;91.89
57412;BME280;43247;52.828;-8.980;2023-03-21T04:14:27;100030.37;;;10.59;92.01
57412;BME280;43247;52.828;-8.980;2023-03-21T04:15:27;100036.13;;;10.59;91.46
57412;BME280;43247;52.828;-8.980;2023-03-21T04:16:27;100040.75;;;10.61;91.69
57412;BME280;43247;52.828;-8.980;2023-03-21T04:17:27;100042.85;;;10.59;91.57
57412;BME280;43247;52.828;-8.980;2023-03-21T04:18:27;100042.21;;;10.58;91.34
57412;BME280;43247;52.828;-8.980;2023-03-21T04:19:28;100045.65;;;10.57;91.92
57412;BME280;43247;52.828;-8.980;2023-03-21T04:20:28;100049.02;;;10.58;91.37
57412;BME280;43247;52.828;-8.980;2023-03-21T04:21:28;100050.15;;;10.58;91.33
57412;BME280;43247;52.828;-8.980;2023-03-21T04:22:28;100053.52;;;10.54;91.49
57412;BME280;43247;52.828;-8.980;2023-03-21T04:23:28;100053.73;;;10.52;91.47
57412;BME280;43247;52.828;-8.980;2023-03-21T04:24:28;100055.89;;;10.55;91.79
57412;BME280;43247;52.828;-8.980;2023-03-21T04:25:29;100053.16;;;10.55;91.62
57412;BME280;43247;52.828;-8.980;2023-03-21T04:26:29;100054.59;;;10.56;91.86
57412;BME280;43247;52.828;-8.980;2023-03-21T04:27:29;100056.21;;;10.55;91.20
57412;BME280;43247;52.828;-8.980;2023-03-21T04:28:29;100058.26;;;10.51;91.24
57412;BME280;43247;52.828;-8.980;2023-03-21T04:29:29;100059.16;;;10.48;91.27
57412;BME280;43247;52.828;-8.980;2023-03-21T04:30:29;100058.86;;;10.47;91.40
57412;BME280;43247;52.828;-8.980;2023-03-21T04:31:31;100055.54;;;10.46;91.34
57412;BME280;43247;52.828;-8.980;2023-03-21T04:32:30;100054.47;;;10.44;91.49
57412;BME280;43247;52.828;-8.980;2023-03-21T04:33:30;100054.46;;;10.43;91.42
57412;BME280;43247;52.828;-8.980;2023-03-21T04:34:30;100055.65;;;10.43;91.32
57412;BME280;43247;52.828;-8.980;2023-03-21T04:35:30;100053.43;;;10.40;91.10
57412;BME280;43247;52.828;-8.980;2023-03-21T04:36:30;100058.09;;;10.36;90.92
57412;BME280;43247;52.828;-8.980;2023-03-21T04:37:31;100051.68;;;10.39;91.60
57412;BME280;43247;52.828;-8.980;2023-03-21T04:38:31;100053.13;;;10.40;91.42
57412;BME280;43247;52.828;-8.980;2023-03-21T04:39:31;100051.13;;;10.38;91.23
57412;BME280;43247;52.828;-8.980;2023-03-21T04:40:32;100050.98;;;10.37;91.59
57412;BME280;43247;52.828;-8.980;2023-03-21T04:41:32;100051.09;;;10.39;91.67
57412;BME280;43247;52.828;-8.980;2023-03-21T04:42:33;100052.24;;;10.36;91.25
57412;BME280;43247;52.828;-8.980;2023-03-21T04:43:32;100056.80;;;10.35;91.63
57412;BME280;43247;52.828;-8.980;2023-03-21T04:44:32;100057.29;;;10.35;91.86
57412;BME280;43247;52.828;-8.980;2023-03-21T04:45:32;100056.68;;;10.36;92.02
57412;BME280;43247;52.828;-8.980;2023-03-21T04:46:33;100054.65;;;10.36;91.82
57412;BME280;43247;52.828;-8.980;2023-03-21T04:47:33;100053.93;;;10.36;92.09
57412;BME280;43247;52.828;-8.980;2023-03-21T04:48:33;100053.31;;;10.34;91.82
57412;BME280;43247;52.828;-8.980;2023-03-21T04:49:34;100053.24;;;10.34;91.93
57412;BME280;43247;52.828;-8.980;2023-03-21T04:50:34;100051.75;;;10.35;92.00
57412;BME280;43247;52.828;-8.980;2023-03-21T04:51:35;100052.87;;;10.35;92.10
57412;BME280;43247;52.828;-8.980;2023-03-21T04:52:34;100052.88;;;10.36;91.81
57412;BME280;43247;52.828;-8.980;2023-03-21T04:53:34;100050.18;;;10.37;92.30
57412;BME280;43247;52.828;-8.980;2023-03-21T04:54:35;100049.81;;;10.37;91.72
57412;BME280;43247;52.828;-8.980;2023-03-21T04:55:35;100048.01;;;10.37;91.65
57412;BME280;43247;52.828;-8.980;2023-03-21T04:56:35;100049.71;;;10.39;91.98
57412;BME280;43247;52.828;-8.980;2023-03-21T04:57:35;100044.99;;;10.42;92.03
57412;BME280;43247;52.828;-8.980;2023-03-21T04:58:35;100042.66;;;10.40;91.79
57412;BME280;43247;52.828;-8.980;2023-03-21T04:59:35;100043.47;;;10.39;91.78
57412;BME280;43247;52.828;-8.980;2023-03-21T05:00:36;100044.92;;;10.39;92.39
57412;BME280;43247;52.828;-8.980;2023-03-21T05:01:36;100045.40;;;10.39;92.12
57412;BME280;43247;52.828;-8.980;2023-03-21T05:02:36;100046.36;;;10.39;92.10
57412;BME280;43247;52.828;-8.980;2023-03-21T05:03:36;100049.86;;;10.38;92.02
57412;BME280;43247;52.828;-8.980;2023-03-21T05:04:36;100048.98;;;10.38;92.06
57412;BME280;43247;52.828;-8.980;2023-03-21T05:05:37;100052.11;;;10.41;92.32
57412;BME280;43247;52.828;-8.980;2023-03-21T05:06:37;100050.18;;;10.42;92.69
57412;BME280;43247;52.828;-8.980;2023-03-21T05:07:38;100050.50;;;10.42;92.32
57412;BME280;43247;52.828;-8.980;2023-03-21T05:08:37;100050.22;;;10.42;92.25
57412;BME280;43247;52.828;-8.980;2023-03-21T05:09:37;100049.65;;;10.40;92.03
57412;BME280;43247;52.828;-8.980;2023-03-21T05:10:37;100049.10;;;10.41;92.42
57412;BME280;43247;52.828;-8.980;2023-03-21T05:11:38;100045.01;;;10.42;92.55
57412;BME280;43247;52.828;-8.980;2023-03-21T05:12:38;100046.99;;;10.41;92.32
57412;BME280;43247;52.828;-8.980;2023-03-21T05:13:38;100046.13;;;10.40;92.25
57412;BME280;43247;52.828;-8.980;2023-03-21T05:14:38;100046.52;;;10.41;92.32
57412;BME280;43247;52.828;-8.980;2023-03-21T05:15:38;100045.00;;;10.41;92.31
57412;BME280;43247;52.828;-8.980;2023-03-21T05:16:40;100044.09;;;10.42;92.48
57412;BME280;43247;52.828;-8.980;2023-03-21T05:17:38;100041.87;;;10.42;92.63
57412;BME280;43247;52.828;-8.980;2023-03-21T05:18:39;100041.30;;;10.42;92.42
57412;BME280;43247;52.828;-8.980;2023-03-21T05:19:39;100039.78;;;10.39;92.36
57412;BME280;43247;52.828;-8.980;2023-03-21T05:20:40;100040.19;;;10.38;92.54